Time;durP1;ratioP1;P1;durP2;ratioP2;P2;SDS_P1;SDS_P2;PMS_P1;PMS_P2;Temp;Humidity;BMP_temperature;BMP_pressure;BME280_temperature;BME280_humidity;BME280_pressure;Samples;Min_cycle;Max_cycle;Signal;HPM_P1;HPM_P2
2023/05/18 00:05:03;;;;;;;;;;;3.10;99.90;;;;;;8151785;29;19962;-84
2023/05/18 00:09:04;;;;;;;;;;;3.00;99.90;;;;;;8166319;29;19939;-84
2023/05/18 00:13:11;;;;;;;;;;;2.90;99.90;;;;;;8151306;29;20056;-84
2023/05/18 00:17:13;;;;;;;;;;;2.80;99.90;;;;;;8167921;29;19966;-84
2023/05/18 00:21:21;;;;;;;;;;;2.80;99.90;;;;;;8165510;29;19910;-84
2023/05/18 00:25:22;;;;;;;;;;;2.70;99.90;;;;;;8167378;29;20127;-83
2023/05/18 00:29:23;;;;;;;;;;;2.70;99.90;;;;;;8174017;29;19954;-84
2023/05/18 00:33:32;;;;;;;;;;;2.50;99.90;;;;;;8157729;29;19962;-84
2023/05/18 00:37:33;;;;;;;;;;;2.50;99.90;;;;;;8168859;29;19911;-84
2023/05/18 00:41:39;;;;;;;;;;;2.40;99.90;;;;;;8168437;29;19915;-84
2023/05/18 00:45:42;;;;;;;;;;;2.50;99.90;;;;;;8169706;29;19922;-84
2023/05/18 00:50:04;;;;;;;;;;;2.40;99.90;;;;;;8158665;29;20356;-84
2023/05/18 00:54:05;;;;;;;;;;;2.50;99.90;;;;;;8177539;29;19911;-84
2023/05/18 00:58:05;;;;;;;;;;;2.40;99.90;;;;;;8152944;29;19911;-83
2023/05/18 01:02:13;;;;;;;;;;;2.50;99.90;;;;;;8150456;29;20295;-84
2023/05/18 01:06:20;;;;;;;;;;;2.40;99.90;;;;;;8172896;29;19919;-84
2023/05/18 01:10:24;;;;;;;;;;;2.30;99.90;;;;;;8169588;29;19911;-84
2023/05/18 01:14:44;;;;;;;;;;;2.30;99.90;;;;;;8167241;29;19918;-84
2023/05/18 01:18:59;;;;;;;;;;;2.40;99.90;;;;;;8175987;29;19919;-84
2023/05/18 01:23:19;;;;;;;;;;;2.40;99.90;;;;;;8158827;29;19915;-84
2023/05/18 01:27:29;;;;;;;;;;;2.50;99.90;;;;;;8174400;29;19914;-84
2023/05/18 01:31:33;;;;;;;;;;;2.40;99.90;;;;;;8174678;29;19921;-84
2023/05/18 01:35:48;;;;;;;;;;;2.40;99.90;;;;;;8173977;29;19911;-84
2023/05/18 01:39:48;;;;;;;;;;;2.40;99.90;;;;;;8167525;29;19911;-84
2023/05/18 01:44:00;;;;;;;;;;;2.50;99.90;;;;;;8152919;29;19930;-84
2023/05/18 01:48:01;;;;;;;;;;;2.80;99.90;;;;;;8174333;29;19915;-84
2023/05/18 01:52:25;;;;;;;;;;;2.60;99.90;;;;;;8158922;29;19969;-84
2023/05/18 01:56:32;;;;;;;;;;;2.50;99.90;;;;;;8145433;29;20368;-84
2023/05/18 02:00:36;;;;;;;;;;;2.50;99.90;;;;;;8173743;29;19958;-84
2023/05/18 02:04:37;;;;;;;;;;;2.70;99.90;;;;;;8172571;29;19926;-83
2023/05/18 02:08:54;;;;;;;;;;;3.20;99.90;;;;;;8157469;29;19942;-84
2023/05/18 02:12:54;;;;;;;;;;;3.20;99.90;;;;;;8173993;29;19958;-84
2023/05/18 02:16:56;;;;;;;;;;;3.40;99.90;;;;;;8160737;29;19915;-83
2023/05/18 02:20:59;;;;;;;;;;;3.40;99.90;;;;;;8163111;29;19914;-83
2023/05/18 02:25:00;;;;;;;;;;;3.40;99.90;;;;;;8152637;29;19919;-84
2023/05/18 02:29:14;;;;;;;;;;;3.50;99.90;;;;;;8156991;29;19911;-84
2023/05/18 02:33:16;;;;;;;;;;;3.80;99.90;;;;;;8159424;29;19933;-84
2023/05/18 02:37:17;;;;;;;;;;;3.50;99.90;;;;;;8169440;29;20410;-83
2023/05/18 02:41:24;;;;;;;;;;;3.90;99.90;;;;;;8162657;29;19921;-83
2023/05/18 02:45:25;;;;;;;;;;;3.80;99.90;;;;;;8158447;29;19914;-84
2023/05/18 02:49:25;;;;;;;;;;;3.80;99.90;;;;;;8172173;29;19912;-84
2023/05/18 02:53:26;;;;;;;;;;;3.90;99.90;;;;;;8155050;29;19961;-84
2023/05/18 02:57:38;;;;;;;;;;;4.00;99.90;;;;;;8171776;29;19918;-84
2023/05/18 03:01:42;;;;;;;;;;;3.90;99.90;;;;;;8169632;29;20401;-83
2023/05/18 03:05:48;;;;;;;;;;;4.20;99.90;;;;;;8171516;29;19922;-84
2023/05/18 03:09:48;;;;;;;;;;;4.50;99.90;;;;;;8168936;29;19919;-84
2023/05/18 03:13:49;;;;;;;;;;;3.80;99.90;;;;;;8163800;29;19967;-84
2023/05/18 03:17:50;;;;;;;;;;;3.90;99.90;;;;;;8159611;29;19922;-84
2023/05/18 03:21:51;;;;;;;;;;;3.90;99.90;;;;;;8149866;29;19914;-84
2023/05/18 03:25:53;;;;;;;;;;;3.80;99.90;;;;;;8155585;29;19922;-84
2023/05/18 03:29:55;;;;;;;;;;;3.80;99.90;;;;;;8161026;29;19954;-84
2023/05/18 03:34:13;;;;;;;;;;;3.90;99.90;;;;;;8183755;29;20037;-84
2023/05/18 03:38:14;;;;;;;;;;;4.20;99.90;;;;;;8173311;29;19918;-84
2023/05/18 03:42:15;;;;;;;;;;;3.90;99.90;;;;;;8168801;29;19914;-84
2023/05/18 03:46:15;;;;;;;;;;;3.80;99.90;;;;;;8157842;29;19919;-84
2023/05/18 03:50:31;;;;;;;;;;;3.80;99.90;;;;;;8154840;29;20437;-84
2023/05/18 03:54:41;;;;;;;;;;;3.80;99.90;;;;;;8166511;29;20006;-84
2023/05/18 03:59:06;;;;;;;;;;;3.80;99.90;;;;;;8153754;29;19971;-84
2023/05/18 04:03:23;;;;;;;;;;;3.80;99.90;;;;;;8193735;28;19915;-84
2023/05/18 04:08:06;;;;;;;;;;;4.00;99.90;;;;;;8178181;29;20017;-84
2023/05/18 04:12:40;;;;;;;;;;;4.20;99.90;;;;;;8192596;28;19917;-84
2023/05/18 04:17:05;;;;;;;;;;;4.30;99.90;;;;;;8187946;28;19911;-84
2023/05/18 04:21:12;;;;;;;;;;;4.50;99.90;;;;;;8187636;28;19911;-84
2023/05/18 04:25:19;;;;;;;;;;;4.50;99.90;;;;;;8173813;28;19919;-84
2023/05/18 04:29:39;;;;;;;;;;;;;;;;;;;;;
2023/05/18 04:33:45;;;;;;;;;;;4.60;99.90;;;;;;8169392;29;19915;-84
2023/05/18 04:38:19;;;;;;;;;;;;;;;;;;;;;
2023/05/18 04:43:03;;;;;;;;;;;4.80;99.90;;;;;;8172150;29;20299;-84
2023/05/18 04:47:07;;;;;;;;;;;5.20;99.90;;;;;;8122957;29;19930;-84
2023/05/18 04:55:57;;;;;;;;;;;6.20;99.90;;;;;;8138972;29;19922;-84
2023/05/18 05:04:54;;;;;;;;;;;6.70;99.90;;;;;;8138143;29;20032;-84
2023/05/18 05:09:00;;;;;;;;;;;6.70;99.90;;;;;;8140180;29;19923;-84
2023/05/18 05:17:39;;;;;;;;;;;7.80;99.90;;;;;;8176050;29;19922;-84
2023/05/18 05:21:40;;;;;;;;;;;8.30;99.90;;;;;;8156222;29;20005;-84
2023/05/18 05:25:46;;;;;;;;;;;7.90;99.90;;;;;;8157226;29;19915;-84
2023/05/18 05:30:13;;;;;;;;;;;8.40;99.90;;;;;;8177983;29;19914;-84
2023/05/18 05:34:19;;;;;;;;;;;8.50;99.90;;;;;;8157720;29;20037;-84
2023/05/18 05:38:30;;;;;;;;;;;9.30;99.90;;;;;;8166406;29;20381;-84
2023/05/18 05:42:52;;;;;;;;;;;8.90;99.90;;;;;;8155514;29;20497;-83
2023/05/18 05:46:53;;;;;;;;;;;9.20;99.90;;;;;;8155824;29;19919;-84
2023/05/18 05:56:15;;;;;;;;;;;9.50;99.90;;;;;;8101967;29;19923;-84
2023/05/18 06:00:23;;;;;;;;;;;10.20;99.90;;;;;;8104783;29;19916;-84
2023/05/18 06:09:03;;;;;;;;;;;10.90;99.90;;;;;;8175860;29;19941;-85
2023/05/18 06:13:28;;;;;;;;;;;12.10;99.90;;;;;;8168717;29;19926;-85
2023/05/18 06:17:50;;;;;;;;;;;10.70;99.90;;;;;;8171279;29;19915;-84
2023/05/18 06:22:09;;;;;;;;;;;11.20;99.90;;;;;;8154604;29;19923;-84
2023/05/18 06:26:16;;;;;;;;;;;11.30;99.90;;;;;;8164057;29;19930;-84
2023/05/18 06:30:26;;;;;;;;;;;11.20;99.90;;;;;;8168580;29;19915;-84
2023/05/18 06:34:55;;;;;;;;;;;11.70;99.90;;;;;;8139796;29;19922;-84
2023/05/18 06:39:14;;;;;;;;;;;12.10;99.90;;;;;;8164809;29;20052;-84
2023/05/18 06:43:21;;;;;;;;;;;12.20;99.90;;;;;;8169969;29;19919;-84
2023/05/18 06:47:51;;;;;;;;;;;11.90;99.90;;;;;;8171551;29;19915;-84
2023/05/18 06:52:20;;;;;;;;;;;11.60;99.90;;;;;;8175199;29;19915;-84
2023/05/18 06:56:27;;;;;;;;;;;11.50;99.90;;;;;;8178781;29;19922;-84
2023/05/18 07:01:01;;;;;;;;;;;12.30;99.90;;;;;;8162167;29;19915;-84
2023/05/18 07:05:17;;;;;;;;;;;12.90;99.90;;;;;;8170917;29;20729;-84
2023/05/18 07:09:30;;;;;;;;;;;12.80;99.90;;;;;;8170151;29;20325;-84
2023/05/18 07:13:34;;;;;;;;;;;12.80;99.90;;;;;;8170761;29;19979;-83
2023/05/18 07:17:43;;;;;;;;;;;13.00;99.90;;;;;;8167700;29;20291;-84
2023/05/18 07:22:03;;;;;;;;;;;;;;;;;;;;;
2023/05/18 07:26:09;;;;;;;;;;;13.60;99.90;;;;;;8160635;29;19982;-83
2023/05/18 07:30:16;;;;;;;;;;;13.70;99.90;;;;;;8157259;29;19933;-84
2023/05/18 07:34:16;;;;;;;;;;;13.70;99.90;;;;;;8164472;29;19918;-84
2023/05/18 07:38:23;;;;;;;;;;;13.80;99.90;;;;;;8157606;29;19911;-84
2023/05/18 07:42:32;;;;;;;;;;;13.90;99.90;;;;;;8152393;29;19998;-84
2023/05/18 07:46:40;;;;;;;;;;;14.10;99.90;;;;;;8153472;29;19930;-84
2023/05/18 07:50:50;;;;;;;;;;;14.50;99.90;;;;;;8165655;29;19965;-84
2023/05/18 07:55:27;;;;;;;;;;;14.30;99.90;;;;;;8159178;29;19978;-84
2023/05/18 07:59:44;;;;;;;;;;;;;;;;;;;;;
2023/05/18 08:04:22;;;;;;;;;;;13.80;99.90;;;;;;8164863;29;19919;-83
2023/05/18 08:08:34;;;;;;;;;;;14.00;99.90;;;;;;8163687;29;20009;-84
2023/05/18 08:13:04;;;;;;;;;;;14.10;99.90;;;;;;8151436;29;19923;-84
2023/05/18 08:17:18;;;;;;;;;;;14.20;99.90;;;;;;8161606;29;19910;-84
2023/05/18 08:26:07;;;;;;;;;;;15.30;99.90;;;;;;8180555;29;19934;-84
2023/05/18 08:30:25;;;;;;;;;;;15.50;99.90;;;;;;8163639;29;20013;-84
2023/05/18 08:39:32;;;;;;;;;;;14.60;99.90;;;;;;8172541;29;20455;-83
2023/05/18 08:57:45;;;;;;;;;;;14.50;99.90;;;;;;8126011;29;19966;-85
2023/05/18 09:01:59;;;;;;;;;;;15.00;99.90;;;;;;8096434;29;19915;-84
2023/05/18 09:06:10;;;;;;;;;;;;;;;;;;;;;
2023/05/18 09:19:53;;;;;;;;;;;17.10;99.90;;;;;;8066076;29;20474;-83
2023/05/18 09:29:00;;;;;;;;;;;16.50;99.90;;;;;;8171337;29;20035;-83
2023/05/18 09:33:31;;;;;;;;;;;17.10;99.90;;;;;;8146824;29;19915;-85
2023/05/18 09:37:32;;;;;;;;;;;18.30;99.90;;;;;;8171337;29;19958;-83
2023/05/18 09:41:48;;;;;;;;;;;18.00;99.90;;;;;;8170670;29;20009;-84
2023/05/18 09:46:19;;;;;;;;;;;17.70;99.90;;;;;;8148991;29;20396;-84
2023/05/18 09:50:43;;;;;;;;;;;16.60;99.90;;;;;;8169660;29;19965;-84
2023/05/18 09:55:17;;;;;;;;;;;15.00;99.90;;;;;;8117186;29;19948;-84
2023/05/18 09:59:24;;;;;;;;;;;14.70;99.90;;;;;;8104215;29;19986;-84
2023/05/18 10:03:25;;;;;;;;;;;14.60;99.90;;;;;;8128829;29;20497;-84
2023/05/18 10:07:36;;;;;;;;;;;15.00;99.90;;;;;;8164689;29;19918;-84
2023/05/18 10:11:48;;;;;;;;;;;15.10;99.90;;;;;;8167617;29;19918;-85
2023/05/18 10:20:38;;;;;;;;;;;14.70;99.90;;;;;;8167684;29;19957;-85
2023/05/18 10:25:11;;;;;;;;;;;14.90;99.90;;;;;;8169013;29;19930;-84
2023/05/18 10:33:50;;;;;;;;;;;16.10;99.90;;;;;;8121894;29;20068;-83
2023/05/18 10:38:25;;;;;;;;;;;16.10;99.90;;;;;;8167627;29;19919;-84
2023/05/18 11:06:21;;;;;;;;;;;15.50;99.90;;;;;;8160181;29;19966;-84
2023/05/18 11:10:35;;;;;;;;;;;16.30;99.90;;;;;;8167195;29;19911;-84
2023/05/18 11:14:48;;;;;;;;;;;16.60;99.90;;;;;;8153065;29;19950;-84
2023/05/18 11:19:06;;;;;;;;;;;15.40;99.90;;;;;;8152648;29;19911;-84
2023/05/18 11:23:13;;;;;;;;;;;15.40;99.90;;;;;;8154458;29;19962;-84
2023/05/18 11:27:23;;;;;;;;;;;15.50;99.90;;;;;;8150981;29;19962;-84
2023/05/18 11:31:48;;;;;;;;;;;16.10;99.90;;;;;;8145521;29;20391;-84
2023/05/18 11:36:25;;;;;;;;;;;16.10;99.90;;;;;;8152744;29;20287;-84
2023/05/18 11:41:02;;;;;;;;;;;16.20;99.90;;;;;;8124703;29;19961;-84
2023/05/18 11:45:31;;;;;;;;;;;15.60;99.90;;;;;;8143721;29;20307;-84
2023/05/18 11:49:52;;;;;;;;;;;15.60;99.90;;;;;;8167461;29;19914;-84
2023/05/18 11:54:12;;;;;;;;;;;15.80;99.90;;;;;;8161351;29;20343;-84
2023/05/18 12:03:07;;;;;;;;;;;15.70;99.90;;;;;;8108744;29;19915;-84
2023/05/18 12:12:29;;;;;;;;;;;15.50;99.90;;;;;;8107324;29;19916;-84
2023/05/18 12:16:49;;;;;;;;;;;15.40;99.90;;;;;;8138353;29;19911;-84
2023/05/18 12:21:13;;;;;;;;;;;15.10;99.90;;;;;;8163526;29;19911;-84
2023/05/18 12:25:40;;;;;;;;;;;14.50;99.90;;;;;;8151319;29;19954;-84
2023/05/18 12:34:35;;;;;;;;;;;14.50;99.90;;;;;;8166057;29;20010;-84
2023/05/18 12:38:50;;;;;;;;;;;14.30;99.90;;;;;;8158395;29;19922;-84
2023/05/18 12:43:20;;;;;;;;;;;14.30;99.90;;;;;;8151173;29;20360;-85
2023/05/18 12:47:21;;;;;;;;;;;14.00;99.90;;;;;;8147285;29;19946;-84
2023/05/18 12:51:39;;;;;;;;;;;13.90;99.90;;;;;;8156688;29;20380;-84
2023/05/18 12:56:08;;;;;;;;;;;14.00;99.90;;;;;;8150983;29;19913;-84
2023/05/18 13:04:45;;;;;;;;;;;14.70;99.90;;;;;;8151939;29;19922;-84
2023/05/18 13:09:04;;;;;;;;;;;;;;;;;;;;;
2023/05/18 13:13:21;;;;;;;;;;;15.40;99.90;;;;;;8171097;29;19915;-84
2023/05/18 13:17:34;;;;;;;;;;;15.30;99.90;;;;;;8171907;29;19911;-85
2023/05/18 13:22:07;;;;;;;;;;;15.30;99.90;;;;;;8174236;29;19911;-84
2023/05/18 13:26:38;;;;;;;;;;;15.30;99.90;;;;;;8174043;29;19919;-84
2023/05/18 13:30:44;;;;;;;;;;;15.30;99.90;;;;;;8178250;29;20379;-84
2023/05/18 13:34:55;;;;;;;;;;;15.00;99.90;;;;;;8180259;29;19915;-84
2023/05/18 13:39:28;;;;;;;;;;;;;;;;;;;;;
2023/05/18 13:48:42;;;;;;;;;;;;;;;;;;;;;
2023/05/18 13:52:49;;;;;;;;;;;14.80;99.90;;;;;;8089468;29;19919;-83
2023/05/18 13:56:49;;;;;;;;;;;14.30;99.90;;;;;;8064787;29;19998;-84
2023/05/18 14:01:02;;;;;;;;;;;;;;;;;;;;;
2023/05/18 14:09:55;;;;;;;;;;;14.50;99.90;;;;;;8145371;29;20055;-84
2023/05/18 14:18:45;;;;;;;;;;;14.50;99.90;;;;;;8113262;29;19942;-85
2023/05/18 14:23:11;;;;;;;;;;;14.40;99.90;;;;;;8145284;29;19919;-84
2023/05/18 14:31:45;;;;;;;;;;;15.20;99.90;;;;;;8167632;29;19930;-85
2023/05/18 14:35:48;;;;;;;;;;;14.60;99.90;;;;;;8165549;29;19989;-86
2023/05/18 14:39:52;;;;;;;;;;;14.80;99.90;;;;;;8171743;29;19959;-87
2023/05/18 14:43:55;;;;;;;;;;;15.20;99.90;;;;;;8170883;29;19926;-86
2023/05/18 14:48:30;;;;;;;;;;;15.20;99.90;;;;;;8156576;29;19911;-86
2023/05/18 14:52:50;;;;;;;;;;;14.80;99.90;;;;;;8156850;29;19953;-85
2023/05/18 14:57:53;;;;;;;;;;;14.70;99.90;;;;;;8161252;29;19915;-85
2023/05/18 15:01:47;;;;;;;;;;;14.80;99.90;;;;;;8166439;29;19915;-85
2023/05/18 15:06:00;;;;;;;;;;;14.70;99.90;;;;;;8139739;29;19922;-85
2023/05/18 15:10:22;;;;;;;;;;;14.80;99.90;;;;;;8154841;29;20253;-86
2023/05/18 15:14:57;;;;;;;;;;;15.10;99.90;;;;;;8170077;29;19922;-86
2023/05/18 15:19:24;;;;;;;;;;;15.40;99.90;;;;;;8103644;29;20002;-86
2023/05/18 15:23:44;;;;;;;;;;;15.30;99.90;;;;;;8134528;29;19915;-86
2023/05/18 15:27:57;;;;;;;;;;;15.50;99.90;;;;;;8152379;29;20281;-86
2023/05/18 15:32:35;;;;;;;;;;;15.30;99.90;;;;;;8164316;29;19919;-85
2023/05/18 15:36:48;;;;;;;;;;;14.60;99.90;;;;;;8170338;29;19919;-85
2023/05/18 15:41:07;;;;;;;;;;;14.00;99.90;;;;;;8152687;29;19914;-85
2023/05/18 15:45:18;;;;;;;;;;;14.10;99.90;;;;;;8176066;29;19963;-86
2023/05/18 15:49:48;;;;;;;;;;;13.60;99.90;;;;;;8161652;29;19938;-86
2023/05/18 15:54:21;;;;;;;;;;;13.90;99.90;;;;;;8167567;29;19911;-86
2023/05/18 15:58:27;;;;;;;;;;;13.80;99.90;;;;;;8152016;29;19966;-85
2023/05/18 16:02:34;;;;;;;;;;;13.90;99.90;;;;;;8169978;29;19915;-86
2023/05/18 16:06:46;;;;;;;;;;;14.00;99.90;;;;;;8157197;29;19911;-86
2023/05/18 16:10:47;;;;;;;;;;;13.80;99.90;;;;;;8159353;29;19938;-86
2023/05/18 16:14:50;;;;;;;;;;;13.50;99.90;;;;;;8151615;29;19945;-85
2023/05/18 16:18:51;;;;;;;;;;;13.40;99.90;;;;;;8157943;29;19915;-85
2023/05/18 16:22:57;;;;;;;;;;;13.30;99.90;;;;;;8173176;29;20431;-87
2023/05/18 16:27:01;;;;;;;;;;;13.30;99.90;;;;;;8160350;29;19918;-86
2023/05/18 16:31:06;;;;;;;;;;;13.30;99.90;;;;;;8157578;29;19915;-86
2023/05/18 16:35:10;;;;;;;;;;;13.30;99.90;;;;;;8157555;29;19978;-85
2023/05/18 16:39:14;;;;;;;;;;;13.60;99.90;;;;;;8170702;29;19930;-87
2023/05/18 16:43:18;;;;;;;;;;;13.60;99.90;;;;;;8160557;29;20702;-86
2023/05/18 16:47:21;;;;;;;;;;;13.60;99.90;;;;;;8164330;29;19911;-86
2023/05/18 16:51:45;;;;;;;;;;;13.60;99.90;;;;;;8160101;29;19918;-87
2023/05/18 16:56:01;;;;;;;;;;;;;;;;;;;;;
2023/05/18 17:00:14;;;;;;;;;;;13.60;99.90;;;;;;8180123;29;20403;-87
2023/05/18 17:04:58;;;;;;;;;;;;;;;;;;;;;
2023/05/18 17:18:02;;;;;;;;;;;13.30;99.90;;;;;;8173171;29;19958;-87
2023/05/18 17:22:16;;;;;;;;;;;13.20;99.90;;;;;;8188785;29;19994;-89
2023/05/18 17:26:52;;;;;;;;;;;13.30;99.90;;;;;;8190969;29;19911;-87
2023/05/18 17:35:41;;;;;;;;;;;13.20;99.90;;;;;;8177767;29;19919;-87
2023/05/18 17:40:13;;;;;;;;;;;;;;;;;;;;;
2023/05/18 17:44:20;;;;;;;;;;;12.90;99.90;;;;;;8178316;29;19941;-87
2023/05/18 17:53:28;;;;;;;;;;;;;;;;;;;;;
2023/05/18 17:57:57;;;;;;;;;;;;;;;;;;;;;
2023/05/18 18:01:58;;;;;;;;;;;12.40;99.90;;;;;;8179849;29;20182;-87
2023/05/18 18:06:24;;;;;;;;;;;12.40;99.90;;;;;;8155168;29;19918;-87
2023/05/18 18:10:31;;;;;;;;;;;12.30;99.90;;;;;;8174483;29;19915;-86
2023/05/18 18:15:29;;;;;;;;;;;12.10;99.90;;;;;;8163015;29;20654;-87
2023/05/18 18:28:43;;;;;;;;;;;12.00;99.90;;;;;;8105447;29;19919;-89
2023/05/18 18:32:48;;;;;;;;;;;11.90;99.90;;;;;;8134730;29;19923;-86
2023/05/18 18:36:56;;;;;;;;;;;11.80;99.90;;;;;;8154350;29;19919;-86
2023/05/18 18:45:21;;;;;;;;;;;11.80;99.90;;;;;;8170418;29;20427;-86
2023/05/18 18:49:30;;;;;;;;;;;11.70;99.90;;;;;;8159806;29;19910;-87
2023/05/18 18:53:36;;;;;;;;;;;11.80;99.90;;;;;;8164328;29;19918;-86
2023/05/18 18:57:43;;;;;;;;;;;11.60;99.90;;;;;;8169248;29;19911;-85
2023/05/18 19:02:00;;;;;;;;;;;11.60;99.90;;;;;;8168914;29;20414;-86
2023/05/18 19:06:23;;;;;;;;;;;11.60;99.90;;;;;;8169091;29;19921;-86
2023/05/18 19:10:30;;;;;;;;;;;11.50;99.90;;;;;;8178943;29;19922;-86
2023/05/18 19:14:36;;;;;;;;;;;11.50;99.90;;;;;;8156265;29;19946;-86
2023/05/18 19:18:56;;;;;;;;;;;11.40;99.90;;;;;;8164547;29;19910;-86
2023/05/18 19:23:05;;;;;;;;;;;11.30;99.90;;;;;;8168798;29;19921;-86
2023/05/18 19:31:47;;;;;;;;;;;11.30;99.90;;;;;;8182664;29;19930;-86
2023/05/18 19:35:54;;;;;;;;;;;11.40;99.90;;;;;;8175783;29;19925;-86
2023/05/18 19:40:13;;;;;;;;;;;11.30;99.90;;;;;;8156232;29;19911;-86
2023/05/18 19:44:19;;;;;;;;;;;11.30;99.90;;;;;;8168354;29;19982;-85
2023/05/18 19:48:29;;;;;;;;;;;11.30;99.90;;;;;;8149752;29;19938;-86
2023/05/18 19:52:32;;;;;;;;;;;11.30;99.90;;;;;;8169370;29;19911;-86
2023/05/18 19:56:38;;;;;;;;;;;11.30;99.90;;;;;;8151817;29;19915;-86
2023/05/18 20:00:45;;;;;;;;;;;11.40;99.90;;;;;;8169185;29;20389;-87
2023/05/18 20:04:52;;;;;;;;;;;11.30;99.90;;;;;;8148222;29;19915;-87
2023/05/18 20:08:53;;;;;;;;;;;11.20;99.90;;;;;;8155837;29;19911;-85
2023/05/18 20:12:54;;;;;;;;;;;11.20;99.90;;;;;;8157318;29;20630;-86
2023/05/18 20:16:56;;;;;;;;;;;11.10;99.90;;;;;;8154199;29;20446;-86
2023/05/18 20:21:12;;;;;;;;;;;11.10;99.90;;;;;;8156402;29;19914;-86
2023/05/18 20:30:26;;;;;;;;;;;11.10;99.90;;;;;;8149094;29;19911;-86
2023/05/18 20:34:30;;;;;;;;;;;11.10;99.90;;;;;;8162186;29;19922;-85
2023/05/18 20:38:37;;;;;;;;;;;11.00;99.90;;;;;;8155011;29;19911;-87
2023/05/18 20:42:43;;;;;;;;;;;11.00;99.90;;;;;;8169084;29;19915;-86
2023/05/18 20:46:44;;;;;;;;;;;11.10;99.90;;;;;;8162578;29;19915;-86
2023/05/18 20:50:54;;;;;;;;;;;11.00;99.90;;;;;;8161881;29;20006;-86
2023/05/18 20:55:07;;;;;;;;;;;10.90;99.90;;;;;;8171894;29;19911;-86
2023/05/18 20:59:28;;;;;;;;;;;10.90;99.90;;;;;;8165492;29;19974;-86
2023/05/18 21:12:31;;;;;;;;;;;10.90;99.90;;;;;;8164911;29;19939;-84
2023/05/18 21:16:35;;;;;;;;;;;10.90;99.90;;;;;;8148497;29;19915;-84
2023/05/18 21:25:24;;;;;;;;;;;10.80;99.90;;;;;;8162477;29;19921;-85
2023/05/18 21:29:38;;;;;;;;;;;10.70;99.90;;;;;;8171025;29;19921;-84
2023/05/18 21:33:40;;;;;;;;;;;10.80;99.90;;;;;;8169384;29;20386;-84
2023/05/18 21:37:54;;;;;;;;;;;;;;;;;;;;;
2023/05/18 21:41:58;;;;;;;;;;;10.70;99.90;;;;;;8168622;29;20406;-84
2023/05/18 21:46:02;;;;;;;;;;;10.70;99.90;;;;;;8155726;29;20633;-84
2023/05/18 21:50:44;;;;;;;;;;;;;;;;;;;;;
2023/05/18 21:54:48;;;;;;;;;;;10.70;99.90;;;;;;8175359;29;19915;-82
2023/05/18 21:59:27;;;;;;;;;;;10.70;99.90;;;;;;8154945;29;19954;-84
2023/05/18 22:03:40;;;;;;;;;;;10.70;99.90;;;;;;8150642;29;19922;-84
2023/05/18 22:12:46;;;;;;;;;;;10.60;99.90;;;;;;8169379;29;19921;-84
2023/05/18 22:21:23;;;;;;;;;;;10.70;99.90;;;;;;8171734;29;19960;-84
2023/05/18 22:31:21;;;;;;;;;;;10.70;99.90;;;;;;8165066;29;19976;-84
2023/05/18 22:39:50;;;;;;;;;;;10.60;99.90;;;;;;8135445;29;20419;-84
2023/05/18 22:43:54;;;;;;;;;;;10.70;99.90;;;;;;8137325;29;19986;-84
2023/05/18 22:48:19;;;;;;;;;;;10.60;99.90;;;;;;8153728;29;19927;-84
2023/05/18 22:52:23;;;;;;;;;;;10.70;99.90;;;;;;8169133;29;19911;-84
2023/05/18 22:56:43;;;;;;;;;;;10.70;99.90;;;;;;8153097;29;19921;-84
2023/05/18 23:01:11;;;;;;;;;;;10.50;99.90;;;;;;8153623;29;19987;-84
2023/05/18 23:05:12;;;;;;;;;;;10.50;99.90;;;;;;8150405;29;20269;-84
2023/05/18 23:13:49;;;;;;;;;;;10.40;99.90;;;;;;8169836;29;20118;-84
2023/05/18 23:18:12;;;;;;;;;;;;;;;;;;;;;
2023/05/18 23:27:20;;;;;;;;;;;10.50;99.90;;;;;;8122709;29;19954;-84
2023/05/18 23:31:24;;;;;;;;;;;10.40;99.90;;;;;;8139802;29;19919;-84
2023/05/18 23:35:38;;;;;;;;;;;10.30;99.90;;;;;;8153821;29;19978;-84
2023/05/18 23:44:08;;;;;;;;;;;10.30;99.90;;;;;;8167493;29;19966;-84
2023/05/18 23:53:09;;;;;;;;;;;10.30;99.90;;;;;;8135413;29;19938;-84
2023/05/18 23:57:44;;;;;;;;;;;10.10;99.90;;;;;;8141176;29;19911;-84
